createdAt,value
2023-01-20T00:04:35.493Z,13.20
2023-01-20T00:12:09.420Z,17.35
2023-01-20T00:19:44.714Z,18.17
2023-01-20T00:27:20.542Z,21.95
2023-01-20T00:34:55.731Z,16.05
2023-01-20T00:42:29.920Z,21.35
2023-01-20T00:50:05.869Z,14.32
2023-01-20T00:57:39.876Z,17.20
2023-01-20T01:05:15.492Z,17.75
2023-01-20T01:12:49.383Z,20.60
2023-01-20T01:20:25.124Z,17.10
2023-01-20T01:27:59.473Z,21.30
2023-01-20T01:43:22.011Z,16.45
2023-01-20T01:51:01.360Z,17.10
2023-01-20T01:58:38.602Z,19.60
2023-01-20T02:06:15.431Z,21.50
2023-01-20T02:13:49.590Z,22.15
2023-01-20T02:21:50.496Z,18.67
2023-01-20T02:29:52.741Z,22.13
2023-01-20T02:37:30.384Z,16.88
2023-01-20T02:45:10.124Z,20.55
2023-01-20T02:52:50.124Z,19.67
2023-01-20T03:00:28.670Z,22.45
2023-01-20T03:08:07.661Z,18.05
2023-01-20T03:15:50.084Z,17.33
2023-01-20T03:23:26.268Z,23.55
2023-01-20T03:31:01.617Z,26.77
2023-01-20T03:38:37.152Z,30.38
2023-01-20T03:46:17.740Z,20.92
2023-01-20T03:53:57.136Z,23.15
2023-01-20T04:01:35.275Z,24.63
2023-01-20T04:09:15.140Z,21.85
2023-01-20T04:16:54.708Z,27.15
2023-01-20T04:24:34.533Z,24.45
2023-01-20T04:32:09.006Z,24.83
2023-01-20T04:39:44.422Z,26.38
2023-01-20T04:47:18.319Z,27.00
2023-01-20T04:54:54.420Z,32.30
2023-01-20T05:02:28.617Z,27.33
2023-01-20T05:10:03.906Z,30.98
2023-01-20T05:17:37.866Z,26.15
2023-01-20T05:25:13.352Z,26.52
2023-01-20T05:32:50.271Z,25.70
2023-01-20T05:40:25.508Z,31.88
2023-01-20T05:48:00.354Z,29.10
2023-01-20T05:55:35.663Z,27.92
2023-01-20T06:03:09.769Z,28.48
2023-01-20T06:10:45.137Z,31.77
2023-01-20T06:18:19.569Z,33.90
2023-01-20T06:26:00.875Z,32.88
2023-01-20T06:33:35.479Z,37.38
2023-01-20T06:41:11.842Z,41.05
2023-01-20T06:48:46.840Z,32.83
2023-01-20T06:56:22.147Z,38.97
2023-01-20T07:03:56.474Z,34.78
2023-01-20T07:19:05.655Z,34.50
2023-01-20T07:26:41.058Z,39.22
2023-01-20T07:34:16.046Z,42.38
2023-01-20T07:41:51.192Z,42.67
2023-01-20T07:49:25.020Z,39.55
2023-01-20T07:57:00.193Z,45.13
2023-01-20T08:04:34.759Z,37.13
2023-01-20T08:12:09.888Z,41.08
2023-01-20T08:19:43.683Z,38.85
2023-01-20T08:27:19.980Z,38.13
2023-01-20T08:34:55.255Z,44.83
2023-01-20T08:42:30.543Z,44.42
2023-01-20T08:50:04.841Z,40.17
2023-01-20T09:05:15.076Z,37.38
2023-01-20T09:12:50.412Z,40.88
2023-01-20T09:20:24.815Z,38.40
2023-01-20T09:28:02.527Z,39.97
2023-01-20T09:35:36.688Z,35.97
2023-01-20T09:51:37.527Z,42.38
2023-01-20T09:59:19.787Z,38.45
2023-01-20T10:06:56.717Z,34.08
2023-01-20T10:14:36.458Z,42.28
2023-01-20T10:22:14.906Z,38.60
2023-01-20T10:29:55.639Z,33.85
2023-01-20T10:37:32.713Z,28.52
2023-01-20T10:45:19.402Z,35.80
2023-01-20T10:53:14.066Z,28.23
2023-01-20T11:00:50.692Z,36.08
2023-01-20T11:08:28.697Z,30.45
2023-01-20T11:16:11.781Z,34.05
2023-01-20T11:23:52.138Z,33.92
2023-01-20T11:31:39.750Z,24.80
2023-01-20T11:39:26.831Z,34.17
2023-01-20T11:47:22.968Z,31.02
2023-01-20T11:55:10.439Z,34.22
2023-01-20T12:02:57.484Z,29.83
2023-01-20T12:10:35.484Z,35.63
2023-01-20T12:18:17.928Z,31.60
2023-01-20T12:25:56.706Z,31.92
2023-01-20T12:33:34.192Z,32.15
2023-01-20T12:41:14.749Z,41.47
2023-01-20T12:49:02.208Z,29.52
2023-01-20T12:56:43.345Z,28.10
2023-01-20T13:05:00.378Z,28.55
2023-01-20T13:12:49.331Z,25.02
2023-01-20T13:20:27.439Z,28.65
2023-01-20T13:28:01.867Z,27.33
2023-01-20T13:35:45.628Z,27.45
2023-01-20T13:43:51.674Z,30.87
2023-01-20T13:51:46.370Z,30.35
2023-01-20T13:59:20.295Z,31.40
2023-01-20T14:06:55.539Z,30.10
2023-01-20T14:14:29.520Z,29.75
2023-01-20T14:22:17.613Z,23.25
2023-01-20T14:29:53.165Z,28.23
2023-01-20T14:37:30.408Z,25.88
2023-01-20T14:45:05.071Z,29.70
2023-01-20T14:52:40.338Z,26.95
2023-01-20T15:00:17.621Z,27.80
2023-01-20T15:08:05.515Z,27.65
2023-01-20T15:15:39.634Z,26.90
2023-01-20T15:23:20.327Z,28.48
2023-01-20T15:30:56.709Z,28.17
2023-01-20T15:38:33.299Z,26.17
2023-01-20T15:46:11.003Z,37.22
2023-01-20T15:53:46.960Z,32.30
2023-01-20T16:01:24.009Z,30.98
2023-01-20T16:09:01.199Z,28.83
2023-01-20T16:16:35.759Z,31.13
2023-01-20T16:24:11.976Z,33.15
2023-01-20T16:31:46.218Z,33.05
2023-01-20T16:46:57.474Z,32.53
2023-01-20T16:54:32.648Z,24.80
2023-01-20T17:02:06.548Z,27.88
2023-01-20T17:09:43.526Z,27.80
2023-01-20T17:17:17.554Z,27.98
2023-01-20T17:28:25.454Z,30.10
2023-01-20T17:36:00.307Z,32.17
2023-01-20T17:43:36.872Z,30.50
2023-01-20T17:51:12.195Z,34.90
2023-01-20T17:58:48.742Z,30.30
2023-01-20T18:06:24.409Z,33.28
2023-01-20T18:14:01.880Z,32.67
2023-01-20T18:21:37.060Z,35.63
2023-01-20T18:29:15.214Z,35.10
2023-01-20T18:36:49.998Z,34.05
2023-01-20T18:44:25.460Z,35.40
2023-01-20T18:51:59.333Z,36.53
2023-01-20T18:59:34.538Z,36.63
2023-01-20T19:07:08.418Z,40.38
2023-01-20T19:14:43.678Z,44.95
2023-01-20T19:22:17.701Z,40.80
2023-01-20T19:29:53.734Z,40.72
2023-01-20T19:37:28.907Z,44.40
2023-01-20T19:45:04.268Z,35.92
2023-01-20T19:52:38.304Z,38.70
2023-01-20T20:00:14.913Z,42.42
2023-01-20T20:07:51.089Z,41.17
2023-01-20T20:15:26.315Z,38.35
2023-01-20T20:23:00.395Z,38.67
2023-01-20T20:30:35.774Z,39.22
2023-01-20T20:38:09.564Z,38.45
2023-01-20T20:45:44.633Z,37.72
2023-01-20T20:53:19.416Z,38.17
2023-01-20T21:00:56.601Z,32.70
2023-01-20T21:08:30.535Z,39.47
2023-01-20T21:16:10.035Z,30.83
2023-01-20T21:23:44.214Z,31.60
2023-01-20T21:38:54.929Z,32.42
2023-01-20T21:46:31.923Z,34.25
2023-01-20T21:54:06.208Z,27.33
2023-01-20T22:01:41.962Z,29.35
2023-01-20T22:09:15.736Z,32.55
2023-01-20T22:16:51.228Z,29.40
2023-01-20T22:24:25.137Z,27.20
2023-01-20T22:32:02.593Z,24.98
2023-01-20T22:39:36.404Z,28.33
2023-01-20T22:47:11.609Z,25.48
2023-01-20T22:54:45.413Z,24.52
2023-01-20T23:02:20.616Z,29.20
2023-01-20T23:09:54.548Z,26.08
2023-01-20T23:17:32.052Z,22.80
2023-01-20T23:25:08.481Z,22.25
2023-01-20T23:32:44.849Z,24.15
2023-01-20T23:40:19.733Z,26.65
2023-01-20T23:47:54.973Z,22.55
2023-01-20T23:55:29.113Z,25.50
